sensor_id;sensor_type;location;lat;lon;timestamp;pressure;altitude;pressure_sealevel;temperature;humidity
19594;BME280;9944;48.240;16.478;2023-06-14T00:00:39;99450.03;;;14.54;59.58
19594;BME280;9944;48.240;16.478;2023-06-14T00:05:06;99447.50;;;14.49;59.61
19594;BME280;9944;48.240;16.478;2023-06-14T00:09:29;99446.81;;;14.41;60.18
19594;BME280;9944;48.240;16.478;2023-06-14T00:13:53;99448.69;;;14.37;60.27
19594;BME280;9944;48.240;16.478;2023-06-14T00:18:18;99450.50;;;14.35;60.73
19594;BME280;9944;48.240;16.478;2023-06-14T00:22:42;99446.06;;;14.36;60.63
19594;BME280;9944;48.240;16.478;2023-06-14T00:27:07;99447.09;;;14.30;60.81
19594;BME280;9944;48.240;16.478;2023-06-14T00:31:31;99454.31;;;14.25;60.66
19594;BME280;9944;48.240;16.478;2023-06-14T00:35:56;99455.22;;;14.23;60.67
19594;BME280;9944;48.240;16.478;2023-06-14T00:40:19;99454.47;;;14.17;60.44
19594;BME280;9944;48.240;16.478;2023-06-14T00:44:43;99458.94;;;14.15;60.86
19594;BME280;9944;48.240;16.478;2023-06-14T00:49:07;99455.44;;;14.15;60.85
19594;BME280;9944;48.240;16.478;2023-06-14T00:53:32;99455.47;;;14.13;60.45
19594;BME280;9944;48.240;16.478;2023-06-14T00:57:58;99452.03;;;14.08;60.54
19594;BME280;9944;48.240;16.478;2023-06-14T01:02:22;99446.88;;;14.02;60.58
19594;BME280;9944;48.240;16.478;2023-06-14T01:06:56;99444.31;;;13.99;61.03
19594;BME280;9944;48.240;16.478;2023-06-14T01:11:38;99435.63;;;13.92;60.78
19594;BME280;9944;48.240;16.478;2023-06-14T01:16:05;99434.88;;;13.86;61.28
19594;BME280;9944;48.240;16.478;2023-06-14T01:20:30;99440.31;;;13.79;61.67
19594;BME280;9944;48.240;16.478;2023-06-14T01:24:56;99435.09;;;13.76;61.80
19594;BME280;9944;48.240;16.478;2023-06-14T01:29:20;99433.44;;;13.69;61.94
19594;BME280;9944;48.240;16.478;2023-06-14T01:33:44;99428.31;;;13.61;62.30
19594;BME280;9944;48.240;16.478;2023-06-14T01:38:07;99430.16;;;13.58;62.24
19594;BME280;9944;48.240;16.478;2023-06-14T01:42:34;99428.56;;;13.51;62.28
19594;BME280;9944;48.240;16.478;2023-06-14T01:46:58;99424.25;;;13.45;62.65
19594;BME280;9944;48.240;16.478;2023-06-14T01:51:22;99421.69;;;13.40;62.63
19594;BME280;9944;48.240;16.478;2023-06-14T01:55:46;99418.31;;;13.32;63.09
19594;BME280;9944;48.240;16.478;2023-06-14T02:00:13;99422.81;;;13.29;63.30
19594;BME280;9944;48.240;16.478;2023-06-14T02:04:38;99418.47;;;13.26;63.36
19594;BME280;9944;48.240;16.478;2023-06-14T02:09:02;99418.53;;;13.23;63.39
19594;BME280;9944;48.240;16.478;2023-06-14T02:13:26;99424.75;;;13.20;63.48
19594;BME280;9944;48.240;16.478;2023-06-14T02:17:51;99423.09;;;13.16;63.97
19594;BME280;9944;48.240;16.478;2023-06-14T02:22:16;99428.31;;;13.19;63.80
19594;BME280;9944;48.240;16.478;2023-06-14T02:26:40;99422.13;;;13.19;63.94
19594;BME280;9944;48.240;16.478;2023-06-14T02:31:03;99431.00;;;13.18;64.10
19594;BME280;9944;48.240;16.478;2023-06-14T02:35:30;99429.19;;;13.20;64.16
19594;BME280;9944;48.240;16.478;2023-06-14T02:39:54;99440.66;;;13.20;64.08
19594;BME280;9944;48.240;16.478;2023-06-14T02:44:18;99434.50;;;13.20;64.41
19594;BME280;9944;48.240;16.478;2023-06-14T02:48:42;99434.47;;;13.21;64.29
19594;BME280;9944;48.240;16.478;2023-06-14T02:53:07;99434.50;;;13.20;64.35
19594;BME280;9944;48.240;16.478;2023-06-14T02:57:31;99438.03;;;13.19;64.57
19594;BME280;9944;48.240;16.478;2023-06-14T03:01:55;99437.13;;;13.21;64.63
19594;BME280;9944;48.240;16.478;2023-06-14T03:06:19;99442.41;;;13.21;64.38
19594;BME280;9944;48.240;16.478;2023-06-14T03:10:47;99447.72;;;13.21;64.55
19594;BME280;9944;48.240;16.478;2023-06-14T03:15:11;99454.03;;;13.16;64.43
19594;BME280;9944;48.240;16.478;2023-06-14T03:19:40;99448.88;;;13.06;64.56
19594;BME280;9944;48.240;16.478;2023-06-14T03:24:05;99449.81;;;13.05;64.80
19594;BME280;9944;48.240;16.478;2023-06-14T03:28:31;99450.69;;;13.04;65.08
19594;BME280;9944;48.240;16.478;2023-06-14T03:32:55;99456.00;;;13.04;65.22
19594;BME280;9944;48.240;16.478;2023-06-14T03:37:22;99468.38;;;13.04;65.45
19594;BME280;9944;48.240;16.478;2023-06-14T03:41:46;99473.59;;;13.09;65.39
19594;BME280;9944;48.240;16.478;2023-06-14T03:46:11;99483.19;;;13.16;65.24
19594;BME280;9944;48.240;16.478;2023-06-14T03:50:35;99491.03;;;13.19;65.32
19594;BME280;9944;48.240;16.478;2023-06-14T03:55:01;99499.88;;;13.21;65.32
19594;BME280;9944;48.240;16.478;2023-06-14T03:59:28;99502.50;;;13.22;65.26
19594;BME280;9944;48.240;16.478;2023-06-14T04:03:54;99510.38;;;13.24;64.99
19594;BME280;9944;48.240;16.478;2023-06-14T04:08:20;99528.00;;;13.28;65.24
19594;BME280;9944;48.240;16.478;2023-06-14T04:12:45;99527.88;;;13.33;65.63
19594;BME280;9944;48.240;16.478;2023-06-14T04:17:09;99541.94;;;13.38;65.44
19594;BME280;9944;48.240;16.478;2023-06-14T04:21:36;99535.66;;;13.43;65.19
19594;BME280;9944;48.240;16.478;2023-06-14T04:26:00;99539.00;;;13.52;65.22
19594;BME280;9944;48.240;16.478;2023-06-14T04:30:24;99536.25;;;13.58;65.14
19594;BME280;9944;48.240;16.478;2023-06-14T04:34:52;99538.88;;;13.59;64.73
19594;BME280;9944;48.240;16.478;2023-06-14T04:39:18;99540.50;;;13.67;64.97
19594;BME280;9944;48.240;16.478;2023-06-14T04:43:42;99546.56;;;13.73;65.05
19594;BME280;9944;48.240;16.478;2023-06-14T04:48:14;99550.00;;;13.78;64.55
19594;BME280;9944;48.240;16.478;2023-06-14T04:52:37;99541.88;;;13.86;64.83
19594;BME280;9944;48.240;16.478;2023-06-14T04:57:03;99544.44;;;13.91;64.92
19594;BME280;9944;48.240;16.478;2023-06-14T05:01:28;99541.69;;;13.95;64.78
19594;BME280;9944;48.240;16.478;2023-06-14T05:05:51;99538.94;;;14.00;64.35
19594;BME280;9944;48.240;16.478;2023-06-14T05:10:17;99542.31;;;14.07;64.41
19594;BME280;9944;48.240;16.478;2023-06-14T05:14:45;99543.06;;;14.13;64.19
19594;BME280;9944;48.240;16.478;2023-06-14T05:19:12;99550.97;;;14.16;63.94
19594;BME280;9944;48.240;16.478;2023-06-14T05:23:36;99551.81;;;14.18;64.22
19594;BME280;9944;48.240;16.478;2023-06-14T05:28:00;99552.53;;;14.25;64.28
19594;BME280;9944;48.240;16.478;2023-06-14T05:32:25;99554.84;;;14.41;64.37
19594;BME280;9944;48.240;16.478;2023-06-14T05:36:49;99566.69;;;14.63;64.09
19594;BME280;9944;48.240;16.478;2023-06-14T05:41:12;99560.78;;;14.89;63.66
19594;BME280;9944;48.240;16.478;2023-06-14T05:45:36;99568.19;;;15.11;62.49
19594;BME280;9944;48.240;16.478;2023-06-14T05:50:01;99571.09;;;15.36;62.37
19594;BME280;9944;48.240;16.478;2023-06-14T05:54:24;99576.50;;;15.64;61.46
19594;BME280;9944;48.240;16.478;2023-06-14T05:58:49;99575.78;;;15.91;60.46
19594;BME280;9944;48.240;16.478;2023-06-14T06:03:13;99581.28;;;16.16;60.08
19594;BME280;9944;48.240;16.478;2023-06-14T06:07:38;99584.16;;;16.36;59.28
19594;BME280;9944;48.240;16.478;2023-06-14T06:12:04;99578.91;;;16.63;58.60
19594;BME280;9944;48.240;16.478;2023-06-14T06:16:29;99583.03;;;16.73;57.05
19594;BME280;9944;48.240;16.478;2023-06-14T06:20:52;99585.91;;;16.94;57.24
19594;BME280;9944;48.240;16.478;2023-06-14T06:25:17;99597.59;;;17.16;55.96
19594;BME280;9944;48.240;16.478;2023-06-14T06:29:42;99597.84;;;17.35;55.67
19594;BME280;9944;48.240;16.478;2023-06-14T06:34:06;99601.66;;;17.53;55.56
19594;BME280;9944;48.240;16.478;2023-06-14T06:38:30;99597.59;;;17.67;54.83
19594;BME280;9944;48.240;16.478;2023-06-14T06:42:55;99598.25;;;17.73;54.54
19594;BME280;9944;48.240;16.478;2023-06-14T06:47:21;99594.09;;;17.91;54.54
19594;BME280;9944;48.240;16.478;2023-06-14T06:51:59;99587.88;;;18.15;53.50
19594;BME280;9944;48.240;16.478;2023-06-14T06:56:23;99599.34;;;18.40;53.41
19594;BME280;9944;48.240;16.478;2023-06-14T07:00:48;99600.53;;;18.55;52.63
19594;BME280;9944;48.240;16.478;2023-06-14T07:05:12;99589.66;;;18.60;52.15
19594;BME280;9944;48.240;16.478;2023-06-14T07:09:36;99591.19;;;18.67;52.54
19594;BME280;9944;48.240;16.478;2023-06-14T07:14:00;99604.63;;;18.87;52.13
19594;BME280;9944;48.240;16.478;2023-06-14T07:18:25;99602.25;;;19.02;51.63
19594;BME280;9944;48.240;16.478;2023-06-14T07:22:49;99602.72;;;19.12;51.22
19594;BME280;9944;48.240;16.478;2023-06-14T07:27:13;99602.22;;;19.24;51.16
19594;BME280;9944;48.240;16.478;2023-06-14T07:31:37;99605.72;;;19.47;50.82
19594;BME280;9944;48.240;16.478;2023-06-14T07:36:02;99605.19;;;19.59;51.02
19594;BME280;9944;48.240;16.478;2023-06-14T07:40:26;99606.47;;;19.71;50.25
19594;BME280;9944;48.240;16.478;2023-06-14T07:44:49;99605.13;;;19.81;49.97
19594;BME280;9944;48.240;16.478;2023-06-14T07:49:14;99607.75;;;20.02;49.71
19594;BME280;9944;48.240;16.478;2023-06-14T07:53:40;99607.31;;;20.11;48.97
19594;BME280;9944;48.240;16.478;2023-06-14T07:58:05;99613.84;;;20.05;48.73
19594;BME280;9944;48.240;16.478;2023-06-14T08:02:29;99615.19;;;19.95;49.18
19594;BME280;9944;48.240;16.478;2023-06-14T08:06:53;99614.03;;;20.00;48.81
19594;BME280;9944;48.240;16.478;2023-06-14T08:11:18;99602.91;;;20.10;48.63
19594;BME280;9944;48.240;16.478;2023-06-14T08:15:43;99613.66;;;20.29;48.49
19594;BME280;9944;48.240;16.478;2023-06-14T08:20:08;99616.00;;;20.55;48.44
19594;BME280;9944;48.240;16.478;2023-06-14T08:24:33;99622.34;;;20.72;48.12
19594;BME280;9944;48.240;16.478;2023-06-14T08:28:58;99628.41;;;20.94;47.50
19594;BME280;9944;48.240;16.478;2023-06-14T08:33:21;99622.31;;;21.10;47.98
19594;BME280;9944;48.240;16.478;2023-06-14T08:37:46;99627.19;;;21.19;47.08
19594;BME280;9944;48.240;16.478;2023-06-14T08:42:10;99626.09;;;21.06;46.47
19594;BME280;9944;48.240;16.478;2023-06-14T08:46:54;99627.81;;;21.07;46.07
19594;BME280;9944;48.240;16.478;2023-06-14T08:51:19;99630.56;;;21.05;45.80
19594;BME280;9944;48.240;16.478;2023-06-14T08:55:45;99635.19;;;21.21;45.48
19594;BME280;9944;48.240;16.478;2023-06-14T09:00:12;99628.47;;;21.29;44.79
19594;BME280;9944;48.240;16.478;2023-06-14T09:04:38;99632.59;;;21.54;45.10
19594;BME280;9944;48.240;16.478;2023-06-14T09:09:02;99632.41;;;21.75;44.30
19594;BME280;9944;48.240;16.478;2023-06-14T09:13:26;99630.69;;;21.91;44.36
19594;BME280;9944;48.240;16.478;2023-06-14T09:17:53;99625.94;;;21.96;43.96
19594;BME280;9944;48.240;16.478;2023-06-14T09:22:19;99622.66;;;22.07;43.74
19594;BME280;9944;48.240;16.478;2023-06-14T09:26:43;99627.44;;;22.18;42.99
19594;BME280;9944;48.240;16.478;2023-06-14T09:31:10;99629.97;;;22.21;43.34
19594;BME280;9944;48.240;16.478;2023-06-14T09:35:34;99627.28;;;22.21;42.85
19594;BME280;9944;48.240;16.478;2023-06-14T09:40:00;99621.22;;;22.33;42.70
19594;BME280;9944;48.240;16.478;2023-06-14T09:44:25;99623.31;;;22.44;42.07
19594;BME280;9944;48.240;16.478;2023-06-14T09:48:50;99615.78;;;22.51;41.91
19594;BME280;9944;48.240;16.478;2023-06-14T09:53:15;99620.16;;;22.69;42.13
19594;BME280;9944;48.240;16.478;2023-06-14T09:57:42;99624.50;;;22.88;41.13
19594;BME280;9944;48.240;16.478;2023-06-14T10:02:13;99617.78;;;22.95;41.19
19594;BME280;9944;48.240;16.478;2023-06-14T10:06:41;99621.69;;;23.05;40.24
19594;BME280;9944;48.240;16.478;2023-06-14T10:11:05;99619.94;;;23.04;40.86
19594;BME280;9944;48.240;16.478;2023-06-14T10:15:36;99621.47;;;23.08;39.62
19594;BME280;9944;48.240;16.478;2023-06-14T10:20:17;99614.81;;;23.15;39.44
19594;BME280;9944;48.240;16.478;2023-06-14T10:24:44;99611.13;;;23.16;39.86
19594;BME280;9944;48.240;16.478;2023-06-14T10:29:10;99612.34;;;23.27;40.11
19594;BME280;9944;48.240;16.478;2023-06-14T10:33:36;99604.91;;;23.16;39.87
19594;BME280;9944;48.240;16.478;2023-06-14T10:38:09;99609.50;;;23.30;39.23
19594;BME280;9944;48.240;16.478;2023-06-14T10:42:33;99601.72;;;23.24;39.19
19594;BME280;9944;48.240;16.478;2023-06-14T10:46:58;99595.94;;;23.31;39.10
19594;BME280;9944;48.240;16.478;2023-06-14T10:51:24;99598.53;;;23.33;39.36
19594;BME280;9944;48.240;16.478;2023-06-14T10:55:48;99592.94;;;23.36;38.40
19594;BME280;9944;48.240;16.478;2023-06-14T11:00:14;99600.66;;;23.42;38.88
19594;BME280;9944;48.240;16.478;2023-06-14T11:04:47;99593.00;;;23.65;38.66
19594;BME280;9944;48.240;16.478;2023-06-14T11:14:04;99579.53;;;23.65;37.24
19594;BME280;9944;48.240;16.478;2023-06-14T11:18:28;99595.28;;;23.42;38.26
19594;BME280;9944;48.240;16.478;2023-06-14T11:22:52;99587.09;;;23.44;38.13
19594;BME280;9944;48.240;16.478;2023-06-14T11:27:18;99580.47;;;23.49;37.72
19594;BME280;9944;48.240;16.478;2023-06-14T11:31:43;99570.28;;;23.54;38.07
19594;BME280;9944;48.240;16.478;2023-06-14T11:36:08;99566.25;;;23.62;37.10
19594;BME280;9944;48.240;16.478;2023-06-14T11:40:31;99566.16;;;23.49;37.50
19594;BME280;9944;48.240;16.478;2023-06-14T11:44:56;99571.97;;;23.41;37.62
19594;BME280;9944;48.240;16.478;2023-06-14T11:49:35;99584.00;;;23.35;37.48
19594;BME280;9944;48.240;16.478;2023-06-14T11:53:59;99579.03;;;23.44;38.98
19594;BME280;9944;48.240;16.478;2023-06-14T11:58:23;99565.47;;;23.45;38.14
19594;BME280;9944;48.240;16.478;2023-06-14T12:02:54;99564.78;;;23.42;38.70
19594;BME280;9944;48.240;16.478;2023-06-14T12:07:18;99565.63;;;23.28;38.54
19594;BME280;9944;48.240;16.478;2023-06-14T12:11:43;99565.25;;;23.18;37.57
19594;BME280;9944;48.240;16.478;2023-06-14T12:16:07;99557.91;;;23.36;38.51
19594;BME280;9944;48.240;16.478;2023-06-14T12:20:33;99547.56;;;23.59;38.50
19594;BME280;9944;48.240;16.478;2023-06-14T12:24:59;99546.44;;;23.77;37.02
19594;BME280;9944;48.240;16.478;2023-06-14T12:29:22;99549.69;;;23.82;37.47
19594;BME280;9944;48.240;16.478;2023-06-14T12:33:46;99549.09;;;23.91;37.42
19594;BME280;9944;48.240;16.478;2023-06-14T12:38:12;99545.09;;;23.99;36.95
19594;BME280;9944;48.240;16.478;2023-06-14T12:42:37;99549.09;;;23.91;36.41
19594;BME280;9944;48.240;16.478;2023-06-14T12:47:01;99549.19;;;23.90;36.50
19594;BME280;9944;48.240;16.478;2023-06-14T12:51:25;99537.22;;;23.96;36.25
19594;BME280;9944;48.240;16.478;2023-06-14T12:55:50;99534.13;;;24.02;36.92
19594;BME280;9944;48.240;16.478;2023-06-14T13:00:32;99533.53;;;24.11;36.86
19594;BME280;9944;48.240;16.478;2023-06-14T13:04:56;99531.41;;;24.16;36.41
19594;BME280;9944;48.240;16.478;2023-06-14T13:09:20;99529.75;;;24.14;36.29
19594;BME280;9944;48.240;16.478;2023-06-14T13:13:45;99539.13;;;24.08;36.44
19594;BME280;9944;48.240;16.478;2023-06-14T13:18:08;99536.22;;;23.97;36.62
19594;BME280;9944;48.240;16.478;2023-06-14T13:22:34;99530.63;;;23.71;36.57
19594;BME280;9944;48.240;16.478;2023-06-14T13:26:57;99528.59;;;23.60;37.77
19594;BME280;9944;48.240;16.478;2023-06-14T13:31:22;99526.41;;;23.52;37.95
19594;BME280;9944;48.240;16.478;2023-06-14T13:35:46;99525.72;;;23.49;37.48
19594;BME280;9944;48.240;16.478;2023-06-14T13:40:12;99529.25;;;23.35;37.00
19594;BME280;9944;48.240;16.478;2023-06-14T13:44:35;99526.75;;;23.32;37.73
19594;BME280;9944;48.240;16.478;2023-06-14T13:49:00;99525.13;;;23.29;37.70
19594;BME280;9944;48.240;16.478;2023-06-14T13:53:24;99524.41;;;23.26;37.48
19594;BME280;9944;48.240;16.478;2023-06-14T13:57:47;99521.47;;;23.30;37.35
19594;BME280;9944;48.240;16.478;2023-06-14T14:02:11;99524.38;;;23.42;36.74
19594;BME280;9944;48.240;16.478;2023-06-14T14:06:36;99521.56;;;23.43;37.09
19594;BME280;9944;48.240;16.478;2023-06-14T14:11:00;99524.28;;;23.58;37.97
19594;BME280;9944;48.240;16.478;2023-06-14T14:15:23;99525.81;;;23.62;37.63
19594;BME280;9944;48.240;16.478;2023-06-14T14:19:47;99518.91;;;23.58;36.99
19594;BME280;9944;48.240;16.478;2023-06-14T14:24:12;99521.59;;;23.58;36.93
19594;BME280;9944;48.240;16.478;2023-06-14T14:28:35;99520.78;;;23.41;36.50
19594;BME280;9944;48.240;16.478;2023-06-14T14:32:59;99507.72;;;23.35;36.89
19594;BME280;9944;48.240;16.478;2023-06-14T14:37:23;99511.75;;;23.28;37.25
19594;BME280;9944;48.240;16.478;2023-06-14T14:41:49;99517.28;;;23.25;37.75
19594;BME280;9944;48.240;16.478;2023-06-14T14:46:13;99518.19;;;23.25;38.99
19594;BME280;9944;48.240;16.478;2023-06-14T14:50:39;99516.69;;;23.19;39.57
19594;BME280;9944;48.240;16.478;2023-06-14T14:55:03;99514.69;;;23.23;38.21
19594;BME280;9944;48.240;16.478;2023-06-14T14:59:27;99515.94;;;23.17;37.79
19594;BME280;9944;48.240;16.478;2023-06-14T15:03:51;99524.94;;;23.02;37.51
19594;BME280;9944;48.240;16.478;2023-06-14T15:08:21;99520.31;;;23.04;38.54
19594;BME280;9944;48.240;16.478;2023-06-14T15:12:44;99517.19;;;22.96;38.02
19594;BME280;9944;48.240;16.478;2023-06-14T15:17:09;99515.84;;;22.89;38.67
19594;BME280;9944;48.240;16.478;2023-06-14T15:21:32;99522.00;;;22.91;39.88
19594;BME280;9944;48.240;16.478;2023-06-14T15:25:58;99517.59;;;22.90;40.00
19594;BME280;9944;48.240;16.478;2023-06-14T15:30:21;99507.34;;;22.80;39.63
19594;BME280;9944;48.240;16.478;2023-06-14T15:34:47;99506.06;;;22.72;40.29
19594;BME280;9944;48.240;16.478;2023-06-14T15:39:11;99512.00;;;22.62;39.96
19594;BME280;9944;48.240;16.478;2023-06-14T15:43:34;99506.09;;;22.56;38.95
19594;BME280;9944;48.240;16.478;2023-06-14T15:47:57;99506.88;;;22.58;39.28
19594;BME280;9944;48.240;16.478;2023-06-14T15:52:23;99510.16;;;22.63;38.56
19594;BME280;9944;48.240;16.478;2023-06-14T15:56:47;99513.91;;;22.60;39.32
19594;BME280;9944;48.240;16.478;2023-06-14T16:01:10;99514.78;;;22.61;40.26
19594;BME280;9944;48.240;16.478;2023-06-14T16:05:34;99516.22;;;22.51;39.54
19594;BME280;9944;48.240;16.478;2023-06-14T16:09:59;99518.31;;;22.46;40.43
19594;BME280;9944;48.240;16.478;2023-06-14T16:14:22;99529.25;;;22.42;40.16
19594;BME280;9944;48.240;16.478;2023-06-14T16:18:46;99534.56;;;22.28;41.40
19594;BME280;9944;48.240;16.478;2023-06-14T16:23:09;99543.47;;;22.13;42.10
19594;BME280;9944;48.240;16.478;2023-06-14T16:27:34;99528.66;;;22.05;42.98
19594;BME280;9944;48.240;16.478;2023-06-14T16:31:57;99537.56;;;21.90;42.99
19594;BME280;9944;48.240;16.478;2023-06-14T16:36:21;99547.00;;;21.81;43.47
19594;BME280;9944;48.240;16.478;2023-06-14T16:40:45;99550.84;;;21.76;43.73
19594;BME280;9944;48.240;16.478;2023-06-14T16:45:10;99551.16;;;21.69;43.92
19594;BME280;9944;48.240;16.478;2023-06-14T16:49:34;99558.00;;;21.59;43.74
19594;BME280;9944;48.240;16.478;2023-06-14T16:53:58;99556.56;;;21.52;44.61
19594;BME280;9944;48.240;16.478;2023-06-14T16:58:21;99573.81;;;21.48;43.97
19594;BME280;9944;48.240;16.478;2023-06-14T17:02:47;99577.78;;;21.41;44.40
19594;BME280;9944;48.240;16.478;2023-06-14T17:07:12;99584.34;;;21.35;44.29
19594;BME280;9944;48.240;16.478;2023-06-14T17:11:35;99590.25;;;21.24;44.32
19594;BME280;9944;48.240;16.478;2023-06-14T17:15:59;99591.34;;;21.20;44.65
19594;BME280;9944;48.240;16.478;2023-06-14T17:20:24;99604.28;;;21.12;45.27
19594;BME280;9944;48.240;16.478;2023-06-14T17:24:49;99604.63;;;21.06;45.19
19594;BME280;9944;48.240;16.478;2023-06-14T17:29:12;99602.91;;;21.03;45.42
19594;BME280;9944;48.240;16.478;2023-06-14T17:33:35;99610.56;;;20.93;45.79
19594;BME280;9944;48.240;16.478;2023-06-14T17:38:00;99617.19;;;20.86;45.94
19594;BME280;9944;48.240;16.478;2023-06-14T17:42:24;99611.06;;;20.83;46.15
19594;BME280;9944;48.240;16.478;2023-06-14T17:46:48;99623.78;;;20.79;46.32
19594;BME280;9944;48.240;16.478;2023-06-14T17:51:11;99620.63;;;20.71;46.50
19594;BME280;9944;48.240;16.478;2023-06-14T17:55:36;99631.63;;;20.65;46.72
19594;BME280;9944;48.240;16.478;2023-06-14T17:59:59;99632.94;;;20.56;46.98
19594;BME280;9944;48.240;16.478;2023-06-14T18:04:33;99632.22;;;20.52;47.23
19594;BME280;9944;48.240;16.478;2023-06-14T18:08:56;99636.00;;;20.48;47.31
19594;BME280;9944;48.240;16.478;2023-06-14T18:13:21;99642.81;;;20.36;47.31
19594;BME280;9944;48.240;16.478;2023-06-14T18:17:44;99641.44;;;20.28;47.36
19594;BME280;9944;48.240;16.478;2023-06-14T18:22:08;99649.72;;;20.22;47.46
19594;BME280;9944;48.240;16.478;2023-06-14T18:26:31;99649.03;;;20.16;47.96
19594;BME280;9944;48.240;16.478;2023-06-14T18:30:56;99652.88;;;20.11;47.86
19594;BME280;9944;48.240;16.478;2023-06-14T18:35:20;99657.66;;;20.04;47.98
19594;BME280;9944;48.240;16.478;2023-06-14T18:39:45;99662.34;;;19.99;47.80
19594;BME280;9944;48.240;16.478;2023-06-14T18:44:09;99672.41;;;19.94;48.13
19594;BME280;9944;48.240;16.478;2023-06-14T18:48:33;99678.03;;;19.88;48.17
19594;BME280;9944;48.240;16.478;2023-06-14T18:52:57;99687.13;;;19.84;47.85
19594;BME280;9944;48.240;16.478;2023-06-14T18:57:20;99682.06;;;19.77;48.30
19594;BME280;9944;48.240;16.478;2023-06-14T19:01:43;99693.09;;;19.70;48.56
19594;BME280;9944;48.240;16.478;2023-06-14T19:06:09;99696.38;;;19.56;48.65
19594;BME280;9944;48.240;16.478;2023-06-14T19:10:32;99701.19;;;19.48;48.90
19594;BME280;9944;48.240;16.478;2023-06-14T19:14:56;99695.25;;;19.39;49.21
19594;BME280;9944;48.240;16.478;2023-06-14T19:19:19;99703.53;;;19.33;49.78
19594;BME280;9944;48.240;16.478;2023-06-14T19:23:44;99716.22;;;19.28;50.16
19594;BME280;9944;48.240;16.478;2023-06-14T19:28:08;99716.56;;;19.20;50.88
19594;BME280;9944;48.240;16.478;2023-06-14T19:32:31;99720.47;;;19.12;51.48
19594;BME280;9944;48.240;16.478;2023-06-14T19:36:55;99724.13;;;19.09;51.63
19594;BME280;9944;48.240;16.478;2023-06-14T19:41:20;99728.81;;;19.04;51.60
19594;BME280;9944;48.240;16.478;2023-06-14T19:45:44;99738.88;;;18.97;51.82
19594;BME280;9944;48.240;16.478;2023-06-14T19:50:08;99737.41;;;18.90;51.88
19594;BME280;9944;48.240;16.478;2023-06-14T19:54:31;99735.81;;;18.84;52.03
19594;BME280;9944;48.240;16.478;2023-06-14T19:58:56;99734.34;;;18.76;52.21
19594;BME280;9944;48.240;16.478;2023-06-14T20:03:19;99736.44;;;18.67;52.68
19594;BME280;9944;48.240;16.478;2023-06-14T20:07:43;99747.47;;;18.58;52.73
19594;BME280;9944;48.240;16.478;2023-06-14T20:12:07;99740.63;;;18.51;53.01
19594;BME280;9944;48.240;16.478;2023-06-14T20:16:32;99752.53;;;18.42;53.22
19594;BME280;9944;48.240;16.478;2023-06-14T20:20:56;99747.38;;;18.36;53.76
19594;BME280;9944;48.240;16.478;2023-06-14T20:25:19;99744.91;;;18.31;54.06
19594;BME280;9944;48.240;16.478;2023-06-14T20:29:42;99742.50;;;18.24;54.23
19594;BME280;9944;48.240;16.478;2023-06-14T20:34:07;99743.84;;;18.12;54.48
19594;BME280;9944;48.240;16.478;2023-06-14T20:38:31;99739.84;;;17.99;54.88
19594;BME280;9944;48.240;16.478;2023-06-14T20:42:54;99746.28;;;17.93;55.04
19594;BME280;9944;48.240;16.478;2023-06-14T20:47:20;99738.47;;;17.87;55.40
19594;BME280;9944;48.240;16.478;2023-06-14T20:51:44;99739.66;;;17.78;55.57
19594;BME280;9944;48.240;16.478;2023-06-14T20:56:08;99742.72;;;17.66;55.67
19594;BME280;9944;48.240;16.478;2023-06-14T21:00:33;99743.84;;;17.59;55.74
19594;BME280;9944;48.240;16.478;2023-06-14T21:04:57;99729.78;;;17.53;55.99
19594;BME280;9944;48.240;16.478;2023-06-14T21:09:23;99738.09;;;17.44;56.13
19594;BME280;9944;48.240;16.478;2023-06-14T21:13:46;99738.34;;;17.36;56.07
19594;BME280;9944;48.240;16.478;2023-06-14T21:18:09;99738.50;;;17.32;55.83
19594;BME280;9944;48.240;16.478;2023-06-14T21:22:33;99729.94;;;17.22;55.81
19594;BME280;9944;48.240;16.478;2023-06-14T21:26:58;99727.69;;;17.08;55.78
19594;BME280;9944;48.240;16.478;2023-06-14T21:31:22;99720.69;;;17.04;56.18
19594;BME280;9944;48.240;16.478;2023-06-14T21:35:46;99731.38;;;17.04;56.57
19594;BME280;9944;48.240;16.478;2023-06-14T21:40:10;99726.03;;;17.04;56.70
19594;BME280;9944;48.240;16.478;2023-06-14T21:44:38;99721.78;;;16.98;56.99
19594;BME280;9944;48.240;16.478;2023-06-14T21:49:03;99727.44;;;16.88;57.14
19594;BME280;9944;48.240;16.478;2023-06-14T21:53:26;99719.56;;;16.83;57.51
19594;BME280;9944;48.240;16.478;2023-06-14T21:57:53;99721.53;;;16.76;57.35
19594;BME280;9944;48.240;16.478;2023-06-14T22:02:19;99713.69;;;16.72;57.17
19594;BME280;9944;48.240;16.478;2023-06-14T22:06:42;99718.19;;;16.70;57.28
19594;BME280;9944;48.240;16.478;2023-06-14T22:11:07;99720.06;;;16.66;57.64
19594;BME280;9944;48.240;16.478;2023-06-14T22:15:31;99732.75;;;16.58;57.79
19594;BME280;9944;48.240;16.478;2023-06-14T22:19:57;99730.25;;;16.52;57.94
19594;BME280;9944;48.240;16.478;2023-06-14T22:24:20;99733.97;;;16.46;58.14
19594;BME280;9944;48.240;16.478;2023-06-14T22:28:44;99735.94;;;16.39;58.21
19594;BME280;9944;48.240;16.478;2023-06-14T22:33:10;99737.03;;;16.32;58.37
19594;BME280;9944;48.240;16.478;2023-06-14T22:37:36;99735.47;;;16.25;58.30
19594;BME280;9944;48.240;16.478;2023-06-14T22:41:59;99733.78;;;16.21;58.30
19594;BME280;9944;48.240;16.478;2023-06-14T22:46:28;99730.41;;;16.16;58.34
19594;BME280;9944;48.240;16.478;2023-06-14T22:50:53;99738.56;;;16.10;58.56
19594;BME280;9944;48.240;16.478;2023-06-14T22:55:18;99733.38;;;16.03;58.60
19594;BME280;9944;48.240;16.478;2023-06-14T22:59:41;99741.53;;;15.99;58.46
19594;BME280;9944;48.240;16.478;2023-06-14T23:04:05;99741.63;;;15.94;58.56
19594;BME280;9944;48.240;16.478;2023-06-14T23:08:29;99748.00;;;15.88;58.53
19594;BME280;9944;48.240;16.478;2023-06-14T23:12:54;99742.00;;;15.79;58.79
19594;BME280;9944;48.240;16.478;2023-06-14T23:17:19;99746.63;;;15.70;58.87
19594;BME280;9944;48.240;16.478;2023-06-14T23:21:43;99752.13;;;15.64;58.90
19594;BME280;9944;48.240;16.478;2023-06-14T23:26:08;99742.50;;;15.60;59.10